Pagrindinis puslapis
METAR-TAF:

METAR-TAF

Oro uostai :

Hammerfest, Norvegija

platuma: 70-40N, ilguma: 023-40E, Aukštis: 8 m

Dabartinis oras

Ataskaita buvo paskelbta 24 minutes, ne 09:20 UTC
Vėjas 10 kt iš Šiaurės Rytų
Temperatūra 0°C
Drėgmė 100%
Slėgis 1004 hPa
Matomumas: 2000 m
sniegas

METAR: ENHF 070920Z 05010KT 2000 -SHSN VV010 00/00 Q1004 RESHSN RMK WIND 1254FT 04020KT

Laikas: 10:44 (09:44 UTC)

Prognozė

Ataskaita buvo paskelbta 1 valandą ir 44 minutes, ne 08:00 UTC
Prognozė galioja nuo 07 metu 09 UTC su 07 metu 18 UTC
Vėjas 8 kt iš Rytų/Šiaurės Rytų
Matomumas 10 km arba daugiau
Mažai debesys ne aukštis 500 ft
Su prošvaistėmis ne aukštis 1800 ft
sniegas
Laikinai
nuo 07 metu 09 UTC su 07 metu 16 UTC
Matomumas: 0500 m
ne aukštis 400 ft
sniegas
Laikinai
nuo 07 metu 09 UTC su 07 metu 15 UTC
Vėjas 20 kt iš Šiaurės Rytų su gūsio iki 32 kt
Išsisklaidę debesys ne aukštis 2000 ft, Liūtiniai kamuoliniai debesys.
Sniego pustymas

TAF: ENHF 070800Z 0709/0718 06008KT 9999 -SHSN FEW005 BKN018 TEMPO 0709/0716 0500 +SHSN VV004 TEMPO 0709/0715 04020G32KT BLSN SCT020CB

Orai ataskaitas ir orų prognozės (METAR, TAF).

turimą stotys yra geltonos ir raudonos taškus žemėlapyje.

Perkelti pele per norėdami pamatyti stoties vardą.

Tada spustelėkite, norėdami matyti oro stebėjimo ir prognozės.

Norėdami pakeisti žemėlapį: spustelėkite ant žalios mygtukų su juodo kryžiaus žemyn,; žalią mygtuką su brūkšneliu, jei norite nutolinti; arba žalių rodyklių gretimoms žemėlapius.


METAR-TAF: